createdAt,value
2024-02-14T00:01:00.524Z,10.00
2024-02-14T00:03:27.982Z,13.75
2024-02-14T00:05:57.059Z,12.30
2024-02-14T00:08:24.410Z,16.58
2024-02-14T00:10:51.315Z,13.30
2024-02-14T00:13:19.829Z,13.98
2024-02-14T00:15:49.403Z,12.05
2024-02-14T00:18:20.794Z,17.75
2024-02-14T00:20:47.886Z,16.08
2024-02-14T00:23:14.946Z,16.33
2024-02-14T00:25:41.854Z,18.15
2024-02-14T00:28:08.718Z,16.80
2024-02-14T00:30:35.667Z,23.65
2024-02-14T00:33:02.770Z,17.45
2024-02-14T00:35:29.887Z,18.75
2024-02-14T00:37:56.806Z,22.13
2024-02-14T00:40:23.841Z,14.73
2024-02-14T00:42:50.720Z,26.15
2024-02-14T00:45:17.597Z,19.65
2024-02-14T00:47:44.556Z,19.92
2024-02-14T00:50:11.856Z,18.80
2024-02-14T00:52:38.712Z,21.33
2024-02-14T00:55:05.837Z,19.55
2024-02-14T00:57:33.650Z,23.05
2024-02-14T01:00:01.265Z,25.70
2024-02-14T01:02:28.503Z,22.60
2024-02-14T01:04:55.457Z,18.92
2024-02-14T01:07:22.379Z,22.38
2024-02-14T01:09:49.363Z,24.88
2024-02-14T01:12:16.358Z,23.88
2024-02-14T01:14:43.375Z,23.38
2024-02-14T01:17:10.442Z,23.98
2024-02-14T01:19:37.417Z,22.20
2024-02-14T01:22:04.519Z,21.48
2024-02-14T01:24:31.950Z,23.30
2024-02-14T01:26:59.013Z,19.60
2024-02-14T01:29:25.981Z,20.85
2024-02-14T01:31:52.898Z,22.13
2024-02-14T01:34:20.188Z,23.98
2024-02-14T01:36:48.998Z,20.90
2024-02-14T01:39:15.873Z,26.58
2024-02-14T01:41:50.137Z,19.98
2024-02-14T01:44:17.838Z,22.05
2024-02-14T01:46:45.777Z,20.58
2024-02-14T01:49:13.613Z,18.50
2024-02-14T01:51:43.349Z,18.52
2024-02-14T01:54:11.381Z,19.73
2024-02-14T01:56:39.045Z,18.45
2024-02-14T01:59:06.900Z,16.30
2024-02-14T02:01:34.897Z,21.58
2024-02-14T02:04:02.937Z,16.95
2024-02-14T02:06:31.792Z,14.75
2024-02-14T02:08:59.763Z,14.23
2024-02-14T02:11:27.434Z,20.05
2024-02-14T02:13:54.345Z,18.00
2024-02-14T02:16:21.528Z,17.35
2024-02-14T02:18:50.030Z,13.75
2024-02-14T02:21:20.700Z,10.68
2024-02-14T02:23:49.740Z,13.32
2024-02-14T02:26:16.655Z,12.30
2024-02-14T02:28:43.832Z,11.05
2024-02-14T02:31:11.386Z,10.98
2024-02-14T02:33:38.581Z,12.60
2024-02-14T02:36:07.585Z,13.90
2024-02-14T02:38:35.072Z,11.57
2024-02-14T02:41:02.172Z,14.40
2024-02-14T02:43:29.550Z,11.23
2024-02-14T02:45:58.634Z,12.75
2024-02-14T02:48:25.704Z,12.85
2024-02-14T02:50:53.173Z,14.43
2024-02-14T02:53:20.884Z,12.05
2024-02-14T02:55:47.977Z,11.25
2024-02-14T02:58:16.073Z,13.55
2024-02-14T03:00:42.956Z,11.88
2024-02-14T03:03:10.465Z,12.90
2024-02-14T03:05:37.630Z,16.95
2024-02-14T03:08:04.976Z,10.98
2024-02-14T03:10:32.061Z,11.80
2024-02-14T03:12:58.952Z,12.65
2024-02-14T03:15:27.382Z,12.23
2024-02-14T03:17:54.425Z,13.27
2024-02-14T03:20:21.661Z,10.05
2024-02-14T03:22:49.471Z,11.00
2024-02-14T03:25:21.429Z,10.95
2024-02-14T03:27:52.282Z,12.45
2024-02-14T03:30:19.969Z,11.23
2024-02-14T03:32:47.877Z,12.98
2024-02-14T03:35:15.082Z,11.15
2024-02-14T03:37:49.066Z,10.40
2024-02-14T03:40:16.326Z,14.63
2024-02-14T03:42:43.287Z,13.60
2024-02-14T03:45:10.930Z,13.27
2024-02-14T03:47:41.493Z,12.70
2024-02-14T03:50:12.171Z,13.77
2024-02-14T03:52:39.281Z,12.85
2024-02-14T03:55:06.940Z,13.30
2024-02-14T03:57:36.519Z,14.07
2024-02-14T04:00:04.217Z,12.40
2024-02-14T04:02:33.206Z,16.10
2024-02-14T04:05:00.639Z,12.82
2024-02-14T04:07:27.761Z,13.30
2024-02-14T04:09:54.999Z,13.05
2024-02-14T04:12:21.926Z,15.77
2024-02-14T04:14:49.653Z,13.90
2024-02-14T04:17:16.770Z,16.05
2024-02-14T04:19:43.713Z,17.80
2024-02-14T04:22:10.736Z,15.23
2024-02-14T04:24:37.775Z,19.08
2024-02-14T04:27:05.886Z,17.45
2024-02-14T04:29:34.922Z,18.40
2024-02-14T04:32:03.345Z,17.52
2024-02-14T04:34:31.553Z,17.23
2024-02-14T04:36:58.900Z,18.77
2024-02-14T04:39:25.962Z,23.95
2024-02-14T04:41:58.001Z,23.58
2024-02-14T04:44:30.110Z,18.63
2024-02-14T04:47:00.478Z,20.95
2024-02-14T04:49:30.086Z,19.17
2024-02-14T04:51:57.209Z,23.48
2024-02-14T04:54:24.450Z,20.60
2024-02-14T04:56:55.190Z,19.20
2024-02-14T04:59:24.041Z,24.27
2024-02-14T05:01:52.691Z,33.00
2024-02-14T05:04:19.595Z,24.08
2024-02-14T05:06:46.722Z,25.10
2024-02-14T05:09:16.006Z,32.55
2024-02-14T05:11:43.333Z,22.73
2024-02-14T05:14:10.315Z,19.17
2024-02-14T05:16:37.155Z,19.27
2024-02-14T05:19:04.403Z,15.68
2024-02-14T05:21:31.452Z,22.65
2024-02-14T05:23:58.768Z,22.80
2024-02-14T05:26:25.638Z,18.63
2024-02-14T05:28:52.525Z,23.63
2024-02-14T05:31:19.389Z,22.63
2024-02-14T05:33:46.377Z,20.27
2024-02-14T05:36:13.314Z,20.05
2024-02-14T05:38:40.830Z,23.65
2024-02-14T05:41:08.799Z,27.77
2024-02-14T05:43:35.849Z,28.67
2024-02-14T05:46:02.743Z,23.98
2024-02-14T05:48:29.835Z,27.65
2024-02-14T05:50:56.924Z,25.50
2024-02-14T05:53:23.981Z,26.27
2024-02-14T05:55:50.811Z,26.17
2024-02-14T05:58:17.679Z,29.13
2024-02-14T06:00:47.901Z,23.50
2024-02-14T06:03:14.862Z,25.15
2024-02-14T06:05:41.913Z,25.60
2024-02-14T06:08:08.776Z,28.67
2024-02-14T06:10:36.330Z,27.33
2024-02-14T06:13:03.283Z,31.10
2024-02-14T06:15:30.246Z,26.98
2024-02-14T06:17:57.367Z,34.30
2024-02-14T06:20:24.831Z,34.55
2024-02-14T06:22:57.598Z,34.50
2024-02-14T06:25:31.696Z,33.00
2024-02-14T06:27:58.599Z,43.33
2024-02-14T06:30:28.565Z,31.30
2024-02-14T06:33:02.141Z,36.47
2024-02-14T06:35:31.314Z,39.42
2024-02-14T06:38:03.984Z,38.70
2024-02-14T06:40:32.469Z,45.92
2024-02-14T06:43:01.115Z,35.97
2024-02-14T06:45:31.213Z,36.35
2024-02-14T06:47:58.287Z,44.65
2024-02-14T06:50:28.910Z,41.40
2024-02-14T06:53:00.638Z,44.17
2024-02-14T06:55:28.346Z,49.35
2024-02-14T06:57:55.504Z,45.97
2024-02-14T07:00:22.623Z,51.92
2024-02-14T07:02:49.691Z,43.67
2024-02-14T07:05:16.774Z,51.15
2024-02-14T07:07:43.791Z,53.25
2024-02-14T07:10:11.097Z,56.60
2024-02-14T07:12:37.991Z,64.60
2024-02-14T07:15:06.560Z,61.97
2024-02-14T07:17:34.185Z,69.78
2024-02-14T07:20:02.143Z,61.33
2024-02-14T07:22:31.562Z,61.15
2024-02-14T07:24:58.586Z,61.80
2024-02-14T07:27:25.677Z,66.65
2024-02-14T07:29:52.807Z,56.88
2024-02-14T07:32:19.986Z,69.85
2024-02-14T07:34:47.513Z,67.03
2024-02-14T07:37:16.724Z,57.53
2024-02-14T07:39:43.661Z,70.70
2024-02-14T07:42:10.709Z,66.75
2024-02-14T07:44:37.840Z,60.17
2024-02-14T07:47:06.957Z,66.45
2024-02-14T07:49:34.815Z,63.08
2024-02-14T07:52:01.928Z,64.70
2024-02-14T07:54:28.880Z,74.15
2024-02-14T07:56:55.824Z,72.82
2024-02-14T07:59:22.713Z,71.57
2024-02-14T08:01:49.595Z,70.50
2024-02-14T08:04:17.316Z,70.20
2024-02-14T08:06:47.792Z,60.95
2024-02-14T08:09:14.781Z,78.38
2024-02-14T08:11:42.141Z,74.40
2024-02-14T08:14:09.340Z,74.40
2024-02-14T08:16:36.603Z,78.07
2024-02-14T08:19:04.802Z,87.07
2024-02-14T08:21:32.923Z,86.32
2024-02-14T08:24:01.386Z,88.00
2024-02-14T08:26:29.660Z,94.78
2024-02-14T08:28:56.967Z,105.32
2024-02-14T08:31:24.090Z,100.53
2024-02-14T08:33:51.496Z,93.90
2024-02-14T08:36:20.243Z,98.30
2024-02-14T08:38:47.692Z,119.95
2024-02-14T08:41:15.482Z,105.80
2024-02-14T08:43:45.960Z,95.05
2024-02-14T08:46:14.720Z,100.07
2024-02-14T08:48:48.097Z,88.25
2024-02-14T08:51:16.297Z,78.03
2024-02-14T08:53:45.053Z,86.88
2024-02-14T08:56:12.294Z,99.10
2024-02-14T08:58:39.549Z,78.93
2024-02-14T09:01:13.694Z,80.35
2024-02-14T09:03:50.708Z,83.15
2024-02-14T09:06:19.699Z,79.10
2024-02-14T09:08:46.969Z,81.72
2024-02-14T09:11:14.216Z,80.43
2024-02-14T09:13:43.928Z,82.82
2024-02-14T09:16:15.171Z,73.90
2024-02-14T09:18:42.575Z,74.40
2024-02-14T09:21:09.836Z,68.20
2024-02-14T09:23:40.370Z,64.47
2024-02-14T09:26:07.801Z,71.47
2024-02-14T09:28:36.200Z,66.03
2024-02-14T09:31:05.481Z,60.72
2024-02-14T09:33:32.628Z,62.55
2024-02-14T09:35:59.697Z,71.40
2024-02-14T09:38:26.574Z,57.55
2024-02-14T09:40:57.885Z,59.88
2024-02-14T09:43:42.258Z,62.88
2024-02-14T09:46:09.697Z,62.55
2024-02-14T09:48:39.298Z,56.33
2024-02-14T09:51:07.552Z,58.00
2024-02-14T09:53:35.158Z,52.08
2024-02-14T09:56:03.978Z,59.05
2024-02-14T09:58:32.509Z,58.78
2024-02-14T10:01:02.597Z,51.90
2024-02-14T10:03:29.537Z,53.10
2024-02-14T10:05:56.588Z,51.17
2024-02-14T10:08:23.928Z,48.65
2024-02-14T10:10:52.691Z,44.83
2024-02-14T10:13:20.720Z,52.85
2024-02-14T10:15:48.181Z,48.05
2024-02-14T10:18:16.799Z,47.38
2024-02-14T10:20:57.459Z,47.63
2024-02-14T10:23:24.663Z,48.42
2024-02-14T10:25:56.632Z,49.50
2024-02-14T10:28:30.078Z,48.53
2024-02-14T10:31:03.413Z,49.38
2024-02-14T10:33:30.956Z,43.92
2024-02-14T10:36:02.419Z,43.92
2024-02-14T10:38:35.975Z,38.97
2024-02-14T10:43:30.712Z,47.95
2024-02-14T10:46:00.274Z,51.00
2024-02-14T10:48:34.502Z,53.08
2024-02-14T10:51:06.524Z,51.85
2024-02-14T10:53:35.685Z,49.08
2024-02-14T10:56:03.872Z,46.55
2024-02-14T10:58:34.254Z,47.47
2024-02-14T11:01:02.057Z,42.35
2024-02-14T11:03:31.629Z,41.58
2024-02-14T11:06:05.600Z,47.53
2024-02-14T11:08:36.380Z,38.28
2024-02-14T11:11:03.603Z,52.78
2024-02-14T11:13:33.733Z,45.65
2024-02-14T11:16:06.045Z,47.88
2024-02-14T11:18:36.128Z,43.75
2024-02-14T11:21:17.256Z,35.05
2024-02-14T11:23:54.252Z,35.92
2024-02-14T11:26:21.404Z,38.08
2024-02-14T11:28:49.903Z,33.10
2024-02-14T11:31:19.890Z,32.63
2024-02-14T11:33:47.855Z,31.48
2024-02-14T11:36:17.763Z,28.70
2024-02-14T11:38:45.413Z,30.42
2024-02-14T11:41:12.544Z,29.10
2024-02-14T11:43:40.808Z,30.40
2024-02-14T11:46:07.981Z,27.17
2024-02-14T11:48:35.714Z,30.17
2024-02-14T11:51:03.492Z,26.02
2024-02-14T11:53:32.786Z,27.70
2024-02-14T11:55:59.790Z,24.67
2024-02-14T11:58:26.774Z,26.25
2024-02-14T12:00:54.951Z,21.77
2024-02-14T12:03:24.295Z,22.13
2024-02-14T12:05:53.842Z,22.45
2024-02-14T12:08:22.802Z,21.65
2024-02-14T12:10:52.950Z,23.30
2024-02-14T12:13:22.051Z,23.80
2024-02-14T12:15:51.806Z,20.02
2024-02-14T12:18:21.123Z,20.88
2024-02-14T12:20:53.935Z,19.83
2024-02-14T12:23:23.414Z,18.45
2024-02-14T12:25:50.950Z,17.65
2024-02-14T12:28:18.843Z,17.13
2024-02-14T12:30:53.108Z,16.50
2024-02-14T12:33:20.253Z,17.52
2024-02-14T12:35:48.774Z,19.00
2024-02-14T12:38:20.729Z,21.17
2024-02-14T12:40:47.806Z,19.88
2024-02-14T12:43:15.812Z,18.90
2024-02-14T12:45:43.651Z,18.60
2024-02-14T12:48:11.727Z,22.48
2024-02-14T12:50:39.677Z,24.17
2024-02-14T12:53:07.886Z,21.10
2024-02-14T12:55:35.193Z,21.33
2024-02-14T12:58:02.550Z,19.45
2024-02-14T13:00:30.663Z,19.95
2024-02-14T13:02:57.807Z,19.58
2024-02-14T13:05:25.234Z,26.75
2024-02-14T13:07:52.231Z,24.30
2024-02-14T13:10:19.232Z,20.20
2024-02-14T13:12:46.768Z,23.23
2024-02-14T13:15:13.803Z,22.17
2024-02-14T13:17:40.889Z,24.65
2024-02-14T13:20:09.394Z,24.08
2024-02-14T13:22:37.853Z,29.17
2024-02-14T13:25:06.210Z,30.00
2024-02-14T13:27:34.689Z,23.73
2024-02-14T13:30:02.306Z,26.23
2024-02-14T13:32:29.348Z,26.10
2024-02-14T13:34:56.373Z,32.75
2024-02-14T13:37:24.521Z,26.98
2024-02-14T13:39:52.389Z,26.75
2024-02-14T13:42:19.326Z,25.55
2024-02-14T13:44:46.345Z,32.83
2024-02-14T13:47:13.449Z,28.98
2024-02-14T13:49:40.553Z,23.17
2024-02-14T13:52:07.725Z,28.55
2024-02-14T13:54:34.656Z,29.40
2024-02-14T13:57:01.562Z,23.13
2024-02-14T13:59:28.441Z,24.88
2024-02-14T14:01:56.213Z,29.52
2024-02-14T14:04:23.256Z,22.98
2024-02-14T14:06:50.406Z,24.98
2024-02-14T14:09:17.762Z,23.58
2024-02-14T14:11:44.742Z,21.75
2024-02-14T14:14:17.117Z,24.17
2024-02-14T14:16:44.745Z,22.65
2024-02-14T14:19:12.598Z,22.60
2024-02-14T14:21:40.146Z,24.95
2024-02-14T14:24:07.209Z,26.52
2024-02-14T14:26:34.149Z,19.90
2024-02-14T14:29:01.010Z,23.00
2024-02-14T14:31:30.499Z,22.58
2024-02-14T14:33:58.640Z,20.70
2024-02-14T14:36:26.942Z,18.45
2024-02-14T14:38:55.840Z,20.67
2024-02-14T14:41:22.892Z,18.70
2024-02-14T14:43:50.582Z,17.60
2024-02-14T14:46:19.910Z,16.90
2024-02-14T14:48:48.177Z,18.67
2024-02-14T14:51:18.076Z,20.48
2024-02-14T14:53:45.102Z,20.63
2024-02-14T14:56:12.056Z,19.95
2024-02-14T14:58:40.339Z,20.40
2024-02-14T15:01:07.386Z,20.08
2024-02-14T15:03:34.430Z,16.33
2024-02-14T15:06:01.910Z,18.20
2024-02-14T15:08:31.192Z,18.83
2024-02-14T15:10:59.138Z,19.00
2024-02-14T15:13:26.420Z,16.55
2024-02-14T15:15:53.933Z,18.33
2024-02-14T15:18:21.241Z,19.35
2024-02-14T15:20:48.448Z,21.50
2024-02-14T15:23:18.356Z,17.95
2024-02-14T15:25:45.280Z,15.55
2024-02-14T15:28:18.954Z,19.63
2024-02-14T15:31:04.343Z,16.58
2024-02-14T15:33:31.624Z,16.40
2024-02-14T15:36:01.092Z,13.25
2024-02-14T15:38:28.214Z,18.50
2024-02-14T15:40:58.845Z,12.48
2024-02-14T15:43:26.627Z,13.05
2024-02-14T15:45:54.128Z,14.10
2024-02-14T15:48:21.443Z,15.82
2024-02-14T15:50:48.994Z,12.80
2024-02-14T15:53:16.634Z,15.30
2024-02-14T15:55:43.987Z,12.38
2024-02-14T15:58:11.311Z,13.77
2024-02-14T16:00:38.219Z,11.43
2024-02-14T16:03:06.301Z,14.50
2024-02-14T16:05:33.492Z,13.02
2024-02-14T16:08:00.793Z,11.30
2024-02-14T16:10:27.711Z,12.88
2024-02-14T16:12:55.365Z,10.57
2024-02-14T16:15:22.362Z,15.05
2024-02-14T16:17:49.614Z,13.10
2024-02-14T16:20:18.855Z,11.57
2024-02-14T16:22:48.311Z,17.77
2024-02-14T16:25:15.766Z,14.35
2024-02-14T16:27:42.711Z,15.05
2024-02-14T16:30:09.980Z,17.92
2024-02-14T16:32:37.777Z,15.27
2024-02-14T16:35:06.004Z,15.65
2024-02-14T16:37:33.230Z,14.30
2024-02-14T16:40:00.249Z,15.70
2024-02-14T16:42:27.360Z,20.45
2024-02-14T16:44:54.767Z,14.00
2024-02-14T16:47:21.742Z,14.23
2024-02-14T16:49:49.516Z,18.02
2024-02-14T16:52:17.047Z,14.57
2024-02-14T16:54:44.705Z,13.45
2024-02-14T16:57:16.010Z,13.63
2024-02-14T16:59:47.386Z,14.20
2024-02-14T17:02:14.729Z,15.77
2024-02-14T17:04:42.401Z,14.80
2024-02-14T17:07:13.233Z,16.23
2024-02-14T17:09:40.800Z,23.50
2024-02-14T17:12:09.820Z,20.55
2024-02-14T17:14:40.840Z,23.67
2024-02-14T17:17:09.680Z,32.83
2024-02-14T17:19:36.914Z,23.17
2024-02-14T17:22:13.652Z,20.15
2024-02-14T17:24:46.714Z,26.88
2024-02-14T17:27:14.943Z,23.08
2024-02-14T17:29:45.172Z,23.52
2024-02-14T17:32:20.618Z,26.55
2024-02-14T17:34:55.771Z,26.15
2024-02-14T17:37:22.677Z,23.77
2024-02-14T17:39:50.110Z,29.05
2024-02-14T17:42:17.350Z,29.65
2024-02-14T17:44:44.447Z,37.90
2024-02-14T17:47:11.477Z,32.70
2024-02-14T17:49:38.504Z,32.25
2024-02-14T17:52:05.654Z,33.25
2024-02-14T17:54:32.595Z,39.50
2024-02-14T17:56:59.932Z,35.30
2024-02-14T17:59:27.669Z,38.05
2024-02-14T18:01:54.524Z,33.17
2024-02-14T18:04:21.394Z,45.08
2024-02-14T18:06:48.433Z,43.45
2024-02-14T18:09:15.684Z,39.78
2024-02-14T18:11:42.767Z,50.30
2024-02-14T18:14:09.743Z,38.35
2024-02-14T18:16:36.646Z,44.83
2024-02-14T18:19:03.766Z,61.85
2024-02-14T18:21:30.888Z,59.50
2024-02-14T18:23:57.886Z,55.92
2024-02-14T18:26:24.958Z,45.05
2024-02-14T18:28:51.902Z,47.97
2024-02-14T18:31:18.979Z,64.53
2024-02-14T18:33:46.009Z,53.17
2024-02-14T18:36:14.182Z,54.35
2024-02-14T18:38:41.211Z,49.53
2024-02-14T18:41:08.333Z,62.75
2024-02-14T18:43:35.282Z,62.58
2024-02-14T18:46:02.260Z,55.40
2024-02-14T18:48:29.292Z,58.80
2024-02-14T18:50:56.255Z,56.28
2024-02-14T18:53:23.150Z,63.70
2024-02-14T18:55:50.261Z,63.58
2024-02-14T18:58:17.483Z,59.20
2024-02-14T19:00:44.501Z,76.47
2024-02-14T19:03:16.132Z,61.80
2024-02-14T19:05:43.185Z,59.58
2024-02-14T19:08:10.962Z,61.40
2024-02-14T19:10:37.968Z,50.20
2024-02-14T19:13:08.331Z,75.90
2024-02-14T19:15:35.310Z,63.45
2024-02-14T19:18:02.408Z,57.13
2024-02-14T19:20:31.662Z,64.55
2024-02-14T19:22:58.624Z,53.55
2024-02-14T19:25:25.630Z,48.97
2024-02-14T19:27:52.496Z,41.75
2024-02-14T19:30:19.546Z,50.58
2024-02-14T19:32:46.675Z,37.10
2024-02-14T19:35:13.922Z,38.78
2024-02-14T19:37:43.948Z,47.42
2024-02-14T19:40:12.038Z,51.20
2024-02-14T19:42:39.086Z,39.10
2024-02-14T19:45:07.261Z,43.22
2024-02-14T19:47:34.460Z,44.88
2024-02-14T19:50:08.780Z,38.75
2024-02-14T19:52:36.066Z,37.03
2024-02-14T19:55:05.948Z,39.03
2024-02-14T19:57:35.042Z,35.35
2024-02-14T20:00:09.934Z,32.70
2024-02-14T20:02:37.963Z,30.15
2024-02-14T20:05:08.755Z,29.58
2024-02-14T20:07:36.395Z,32.60
2024-02-14T20:10:07.061Z,37.97
2024-02-14T20:12:35.566Z,33.70
2024-02-14T20:15:05.577Z,41.15
2024-02-14T20:17:33.283Z,32.70
2024-02-14T20:20:00.311Z,33.20
2024-02-14T20:22:29.654Z,35.28
2024-02-14T20:24:56.710Z,33.35
2024-02-14T20:27:25.497Z,36.78
2024-02-14T20:29:52.837Z,39.10
2024-02-14T20:32:19.791Z,34.08
2024-02-14T20:34:46.819Z,27.75
2024-02-14T20:37:13.725Z,35.17
2024-02-14T20:39:40.648Z,34.55
2024-02-14T20:42:07.811Z,28.98
2024-02-14T20:44:35.060Z,36.38
2024-02-14T20:47:02.063Z,33.70
2024-02-14T20:49:29.323Z,38.05
2024-02-14T20:51:56.490Z,30.20
2024-02-14T20:54:23.379Z,34.65
2024-02-14T20:56:50.440Z,28.55
2024-02-14T20:59:17.386Z,32.65
2024-02-14T21:01:44.463Z,30.40
2024-02-14T21:04:11.507Z,36.67
2024-02-14T21:06:38.610Z,39.70
2024-02-14T21:09:10.499Z,39.05
2024-02-14T21:11:37.527Z,38.00
2024-02-14T21:14:04.413Z,36.17
2024-02-14T21:16:31.298Z,34.97
2024-02-14T21:18:58.336Z,34.97
2024-02-14T21:21:25.300Z,34.22
2024-02-14T21:23:52.403Z,37.15
2024-02-14T21:26:19.384Z,40.10
2024-02-14T21:28:46.375Z,30.33
2024-02-14T21:31:19.203Z,29.30
2024-02-14T21:33:46.219Z,43.63
2024-02-14T21:36:13.341Z,34.45
2024-02-14T21:38:40.298Z,32.95
2024-02-14T21:41:07.261Z,29.77
2024-02-14T21:43:34.152Z,36.88
2024-02-14T21:46:01.076Z,32.70
2024-02-14T21:48:28.143Z,32.65
2024-02-14T21:50:55.393Z,29.27
2024-02-14T21:53:22.285Z,32.10
2024-02-14T21:55:49.248Z,30.98
2024-02-14T21:58:16.838Z,34.42
2024-02-14T22:00:43.751Z,39.22
2024-02-14T22:03:10.643Z,36.45
2024-02-14T22:05:38.694Z,36.80
2024-02-14T22:08:06.268Z,35.08
2024-02-14T22:10:33.341Z,47.00
2024-02-14T22:13:00.841Z,49.28
2024-02-14T22:15:27.717Z,44.05
2024-02-14T22:17:55.383Z,48.13
2024-02-14T22:20:22.617Z,54.45
2024-02-14T22:22:49.485Z,57.13
2024-02-14T22:25:16.723Z,45.65
2024-02-14T22:27:45.077Z,45.67
2024-02-14T22:30:13.439Z,42.75
2024-02-14T22:32:40.639Z,48.40
2024-02-14T22:35:08.135Z,50.75
2024-02-14T22:37:35.207Z,60.67
2024-02-14T22:40:02.609Z,61.60
2024-02-14T22:42:29.681Z,55.28
2024-02-14T22:44:56.598Z,59.63
2024-02-14T22:47:23.674Z,52.15
2024-02-14T22:49:50.765Z,58.58
2024-02-14T22:52:17.636Z,63.25
2024-02-14T22:54:44.494Z,59.33
2024-02-14T22:57:11.487Z,67.45
2024-02-14T22:59:39.209Z,57.75
2024-02-14T23:02:07.377Z,70.13
2024-02-14T23:04:34.735Z,67.70
2024-02-14T23:07:01.915Z,70.50
2024-02-14T23:09:28.820Z,72.30
2024-02-14T23:11:55.733Z,86.93
2024-02-14T23:14:22.785Z,79.38
2024-02-14T23:16:49.756Z,79.25
2024-02-14T23:19:16.868Z,79.07
2024-02-14T23:21:43.872Z,74.05
2024-02-14T23:24:11.009Z,87.20
2024-02-14T23:26:38.084Z,100.15
2024-02-14T23:29:04.957Z,86.65
2024-02-14T23:31:33.507Z,92.55
2024-02-14T23:34:01.612Z,96.20
2024-02-14T23:36:28.874Z,101.18
2024-02-14T23:38:55.755Z,100.10
2024-02-14T23:41:22.743Z,102.07
2024-02-14T23:43:49.652Z,107.90
2024-02-14T23:46:17.905Z,77.38
2024-02-14T23:48:47.302Z,83.93
2024-02-14T23:51:16.973Z,91.90
2024-02-14T23:53:44.021Z,97.38
2024-02-14T23:56:11.018Z,85.53
2024-02-14T23:58:37.902Z,82.70
